Time;durP1;ratioP1;P1;durP2;ratioP2;P2;SDS_P1;SDS_P2;PMS_P1;PMS_P2;Temp;Humidity;BMP_temperature;BMP_pressure;BME280_temperature;BME280_humidity;BME280_pressure;Samples;Min_cycle;Max_cycle;Signal;HPM_P1;HPM_P2
2022/04/20 00:01:22;;;;;;;;;28.50;23.50;;;;;13.31;55.74;100972.94;5001155;28;45649;-52
2022/04/20 00:03:48;;;;;;;;;24.50;23.75;;;;;13.31;55.67;100965.84;5001309;28;45802;-51
2022/04/20 00:06:14;;;;;;;;;28.25;23.00;;;;;13.31;55.93;100967.66;5001102;28;45945;-50
2022/04/20 00:08:39;;;;;;;;;26.50;23.25;;;;;13.29;55.79;100972.22;5000949;28;45520;-52
2022/04/20 00:11:04;;;;;;;;;33.25;28.50;;;;;13.26;55.94;100967.09;5001054;28;45777;-53
2022/04/20 00:13:30;;;;;;;;;30.50;24.25;;;;;13.23;56.18;100957.59;5001023;28;45488;-53
2022/04/20 00:15:57;;;;;;;;;28.00;24.75;;;;;13.23;55.93;100964.69;5000992;28;45385;-53
2022/04/20 00:18:23;;;;;;;;;34.50;28.50;;;;;13.22;56.26;100963.00;5000590;28;45533;-53
2022/04/20 00:20:48;;;;;;;;;25.75;21.00;;;;;13.21;56.18;100956.84;5000836;28;45377;-53
2022/04/20 00:23:14;;;;;;;;;31.50;26.00;;;;;13.20;56.32;100963.09;5000943;28;45789;-53
2022/04/20 00:25:39;;;;;;;;;34.75;29.25;;;;;13.19;56.40;100961.34;5000962;28;45625;-53
2022/04/20 00:28:05;;;;;;;;;30.00;25.75;;;;;13.12;56.49;100957.44;5000589;28;46053;-52
2022/04/20 00:30:30;;;;;;;;;31.50;25.75;;;;;13.09;56.63;100963.75;4999174;28;45436;-53
2022/04/20 00:32:56;;;;;;;;;40.25;27.75;;;;;13.07;56.76;100963.00;5000651;28;45802;-51
2022/04/20 00:35:22;;;;;;;;;38.75;29.25;;;;;13.04;56.77;100957.94;5000544;28;45393;-53
2022/04/20 00:37:48;;;;;;;;;31.75;28.25;;;;;13.03;56.69;100953.59;5000147;28;45396;-53
2022/04/20 00:40:13;;;;;;;;;24.75;22.00;;;;;13.01;56.79;100955.47;5000289;28;45645;-53
2022/04/20 00:42:40;;;;;;;;;35.25;29.50;;;;;13.01;56.83;100959.94;4999270;28;45490;-53
2022/04/20 00:45:11;;;;;;;;;26.00;23.75;;;;;13.02;57.00;100956.31;4982931;28;45496;-51
2022/04/20 00:47:38;;;;;;;;;31.75;30.75;;;;;13.02;57.12;100953.69;4997618;28;45508;-49
2022/04/20 00:50:06;;;;;;;;;30.25;28.00;;;;;13.00;57.11;100953.78;5000290;28;45518;-52
2022/04/20 00:52:32;;;;;;;;;41.50;30.25;;;;;12.96;57.09;100949.66;5000312;28;45422;-54
2022/04/20 00:54:58;;;;;;;;;36.75;33.25;;;;;12.95;57.25;100947.94;5000546;28;45551;-50
2022/04/20 00:57:24;;;;;;;;;36.75;30.75;;;;;12.93;57.34;100951.66;5000166;28;45430;-51
2022/04/20 00:59:52;;;;;;;;;30.00;28.75;;;;;12.90;57.22;100946.56;4999488;28;45734;-51
2022/04/20 01:02:18;;;;;;;;;32.25;30.75;;;;;12.89;57.66;100947.53;4998041;28;45400;-54
2022/04/20 01:04:45;;;;;;;;;33.50;28.75;;;;;12.85;57.54;100947.72;4982679;28;45442;-54
2022/04/20 01:07:11;;;;;;;;;29.00;23.25;;;;;12.82;57.70;100947.91;4999944;28;45398;-51
2022/04/20 01:09:38;;;;;;;;;36.25;30.50;;;;;12.81;57.84;100940.94;4997644;28;45393;-52
2022/04/20 01:12:04;;;;;;;;;30.75;28.50;;;;;12.79;57.88;100942.81;5000197;28;45765;-53
2022/04/20 01:14:30;;;;;;;;;33.25;30.50;;;;;12.78;57.98;100938.47;5000288;28;45675;-52
2022/04/20 01:16:55;;;;;;;;;31.25;30.75;;;;;12.77;58.10;100942.06;4999592;28;46713;-52
2022/04/20 01:19:21;;;;;;;;;36.25;33.00;;;;;12.76;58.33;100940.38;5000109;28;46662;-53
2022/04/20 01:21:46;;;;;;;;;34.75;28.00;;;;;12.73;58.04;100934.47;5000019;28;45504;-54
2022/04/20 01:24:12;;;;;;;;;37.00;32.00;;;;;12.71;58.34;100936.34;5000124;28;45765;-53
2022/04/20 01:26:39;;;;;;;;;38.25;29.00;;;;;12.69;58.29;100933.78;4999580;28;45521;-53
2022/04/20 01:29:07;;;;;;;;;36.25;30.00;;;;;12.70;58.15;100930.19;4999844;28;45543;-50
2022/04/20 01:31:32;;;;;;;;;40.25;31.50;;;;;12.68;58.48;100925.97;4999452;28;45455;-49
2022/04/20 01:33:58;;;;;;;;;34.50;28.75;;;;;12.68;58.69;100931.25;4999931;28;45444;-52
2022/04/20 01:36:23;;;;;;;;;40.50;31.00;;;;;12.63;58.71;100928.06;4999296;28;45453;-51
2022/04/20 01:38:49;;;;;;;;;37.50;31.25;;;;;12.60;58.66;100928.25;4999653;28;45373;-50
2022/04/20 01:41:15;;;;;;;;;34.00;29.75;;;;;12.55;58.60;100932.03;4999688;28;45421;-53
2022/04/20 01:43:40;;;;;;;;;37.25;34.50;;;;;12.53;59.00;100936.56;4999592;28;45535;-52
2022/04/20 01:46:06;;;;;;;;;50.25;35.25;;;;;12.48;58.90;100932.53;4999200;28;45640;-53
2022/04/20 01:48:31;;;;;;;;;42.50;33.50;;;;;12.49;59.04;100928.97;4999517;28;45428;-51
2022/04/20 01:53:41;;;;;;;;;44.00;34.00;;;;;12.47;58.91;100933.47;4997634;28;45414;-51
2022/04/20 01:56:07;;;;;;;;;49.50;35.75;;;;;12.42;59.15;100925.00;4999279;28;45524;-53
2022/04/20 01:58:34;;;;;;;;;41.00;32.50;;;;;12.40;59.16;100935.69;4999229;28;45556;-54
2022/04/20 02:01:00;;;;;;;;;33.75;30.50;;;;;12.40;59.29;100940.09;4999327;28;45325;-53
2022/04/20 02:03:26;;;;;;;;;28.00;28.00;;;;;12.39;59.31;100938.41;4999517;28;45374;-52
2022/04/20 02:05:52;;;;;;;;;35.25;31.25;;;;;12.40;59.65;100934.81;4998806;28;46160;-53
2022/04/20 02:08:17;;;;;;;;;39.50;33.25;;;;;12.38;59.45;100934.91;4998993;28;45536;-52
2022/04/20 02:10:43;;;;;;;;;45.25;38.25;;;;;12.39;59.53;100938.41;4997988;28;45436;-49
2022/04/20 02:13:09;;;;;;;;;32.00;32.00;;;;;12.38;59.58;100939.34;4999305;28;45446;-49
2022/04/20 02:15:34;;;;;;;;;43.75;28.50;;;;;12.35;59.58;100939.56;4998864;28;45427;-54
2022/04/20 02:17:59;;;;;;;;;46.00;35.00;;;;;12.34;59.57;100927.31;4998932;28;45457;-53
2022/04/20 02:20:25;;;;;;;;;45.00;37.50;;;;;12.36;59.90;100923.59;4998925;28;45546;-52
2022/04/20 02:22:51;;;;;;;;;42.25;34.25;;;;;12.34;59.75;100919.38;4999275;28;45704;-52
2022/04/20 02:25:16;;;;;;;;;48.00;37.00;;;;;12.32;59.79;100919.44;4998823;28;45749;-53
2022/04/20 02:27:43;;;;;;;;;48.25;38.75;;;;;12.32;60.00;100911.53;4998930;28;46407;-52
2022/04/20 02:30:09;;;;;;;;;45.50;31.50;;;;;12.33;60.25;100915.03;4998850;28;45703;-49
2022/04/20 02:32:34;;;;;;;;;45.00;37.50;;;;;12.30;59.94;100911.63;4998741;28;45623;-52
2022/04/20 02:35:00;;;;;;;;;47.00;37.50;;;;;12.29;60.03;100904.66;4998440;28;46186;-53
2022/04/20 02:37:26;;;;;;;;;48.75;38.50;;;;;12.28;60.05;100895.03;4998977;28;45698;-51
2022/04/20 02:39:51;;;;;;;;;47.00;36.00;;;;;12.27;60.22;100895.13;4998811;28;45494;-49
2022/04/20 02:42:17;;;;;;;;;47.00;38.50;;;;;12.23;60.01;100894.47;4998837;28;45408;-52
2022/04/20 02:44:43;;;;;;;;;42.25;35.25;;;;;12.18;60.18;100899.22;4998374;28;45924;-52
2022/04/20 02:47:09;;;;;;;;;51.00;38.50;;;;;12.12;60.36;100896.09;4998457;28;45754;-54
2022/04/20 02:49:35;;;;;;;;;55.00;43.00;;;;;12.09;60.63;100891.88;4998415;28;45500;-51
2022/04/20 02:52:01;;;;;;;;;48.75;39.00;;;;;12.05;60.25;100890.38;4998789;28;45527;-52
2022/04/20 02:54:27;;;;;;;;;46.25;37.75;;;;;12.04;61.03;100885.19;4998434;28;46112;-51
2022/04/20 02:56:53;;;;;;;;;49.75;38.00;;;;;12.06;60.74;100885.94;4998408;28;45723;-53
2022/04/20 02:59:18;;;;;;;;;50.00;36.00;;;;;12.03;60.70;100881.69;4998560;28;45462;-51
2022/04/20 03:01:44;;;;;;;;;51.50;41.50;;;;;12.01;60.71;100881.81;4997151;28;45417;-51
2022/04/20 03:04:10;;;;;;;;;56.75;44.25;;;;;12.00;60.71;100881.88;4998236;28;46255;-52
2022/04/20 03:06:35;;;;;;;;;49.75;41.25;;;;;11.99;60.60;100885.47;4998077;28;45421;-50
2022/04/20 03:09:01;;;;;;;;;51.00;42.75;;;;;11.99;60.61;100874.91;4998456;28;45365;-51
2022/04/20 03:11:27;;;;;;;;;54.50;43.00;;;;;12.02;60.63;100875.56;4998454;28;45538;-53
2022/04/20 03:13:52;;;;;;;;;58.00;44.25;;;;;12.05;60.87;100876.31;4998194;28;46408;-53
2022/04/20 03:16:18;;;;;;;;;54.25;43.00;;;;;12.05;60.43;100869.25;4997702;28;45445;-53
2022/04/20 03:18:43;;;;;;;;;58.50;44.25;;;;;12.04;60.77;100872.81;4997341;28;45476;-51
2022/04/20 03:21:09;;;;;;;;;53.75;43.00;;;;;12.02;60.57;100872.09;4997969;28;45448;-51
2022/04/20 03:23:34;;;;;;;;;56.75;43.50;;;;;12.00;60.59;100871.31;5001322;28;45585;-51
2022/04/20 03:26:00;;;;;;;;;55.00;42.75;;;;;12.00;60.85;100872.16;5001697;28;45362;-53
2022/04/20 03:28:25;;;;;;;;;50.00;40.00;;;;;11.99;60.80;100881.03;5001673;28;45409;-54
2022/04/20 03:30:51;;;;;;;;;56.50;42.50;;;;;11.97;60.78;100879.44;5001610;28;45429;-53
2022/04/20 03:33:17;;;;;;;;;58.00;44.25;;;;;11.95;61.01;100881.34;5001314;28;45433;-48
2022/04/20 03:35:44;;;;;;;;;53.75;42.25;;;;;11.95;60.95;100886.63;5001457;28;45461;-54
2022/04/20 03:38:10;;;;;;;;;60.00;45.25;;;;;11.93;60.71;100883.22;5001570;28;45500;-50
2022/04/20 03:40:35;;;;;;;;;53.00;40.50;;;;;11.89;60.84;100887.84;5001672;28;45726;-53
2022/04/20 03:43:02;;;;;;;;;58.50;45.50;;;;;11.88;60.96;100894.06;5001279;28;45508;-54
2022/04/20 03:45:27;;;;;;;;;62.50;47.50;;;;;11.87;61.02;100900.28;5001401;28;45775;-53
2022/04/20 03:47:53;;;;;;;;;58.25;42.50;;;;;11.87;61.30;100900.28;5001591;28;45464;-53
2022/04/20 03:50:19;;;;;;;;;55.75;43.25;;;;;11.90;61.13;100900.09;4998580;28;45650;-53
2022/04/20 03:52:44;;;;;;;;;61.00;48.00;;;;;11.94;61.02;100906.03;5001278;28;45691;-50
2022/04/20 03:55:10;;;;;;;;;63.50;45.00;;;;;11.94;61.04;100903.41;5001249;28;45377;-51
2022/04/20 03:57:36;;;;;;;;;56.75;46.25;;;;;11.95;60.99;100898.03;5001306;28;45416;-50
2022/04/20 04:00:04;;;;;;;;;60.50;45.75;;;;;11.96;60.71;100902.34;5001270;28;45683;-53
2022/04/20 04:02:29;;;;;;;;;55.50;46.75;;;;;11.95;61.00;100913.84;5001040;28;46448;-53
2022/04/20 04:04:55;;;;;;;;;55.75;44.50;;;;;11.92;60.97;100915.81;5000834;28;45448;-53
2022/04/20 04:07:20;;;;;;;;;61.50;47.75;;;;;11.90;60.92;100918.56;5001174;28;45441;-50
2022/04/20 04:09:46;;;;;;;;;53.00;39.50;;;;;11.87;60.82;100910.84;5001199;28;45578;-51
2022/04/20 04:12:11;;;;;;;;;60.25;48.00;;;;;11.86;60.78;100910.94;5000857;28;46175;-49
2022/04/20 04:14:40;;;;;;;;;62.00;47.50;;;;;11.82;61.00;100897.06;5000928;28;45648;-50
2022/04/20 04:17:06;;;;;;;;;58.75;47.00;;;;;11.83;61.18;100898.75;5000932;28;45563;-52
2022/04/20 04:19:35;;;;;;;;;54.75;43.25;;;;;11.84;61.16;100899.63;5000988;28;45495;-49
2022/04/20 04:22:02;;;;;;;;;63.75;45.00;;;;;11.83;61.42;100901.41;4998924;28;46134;-52
2022/04/20 04:24:36;;;;;;;;;56.75;45.25;;;;;11.83;61.31;100892.66;5000836;28;45563;-50
2022/04/20 04:27:07;;;;;;;;;62.50;49.25;;;;;11.81;61.06;100886.63;5000366;28;45499;-53
2022/04/20 04:29:34;;;;;;;;;58.00;46.75;;;;;11.83;61.34;100895.28;5000774;28;45791;-52
2022/04/20 04:32:00;;;;;;;;;60.50;47.00;;;;;11.82;61.24;100889.16;4994952;28;45488;-48
2022/04/20 04:34:26;;;;;;;;;57.50;47.00;;;;;11.85;61.19;100903.94;4999246;28;45484;-52
2022/04/20 04:36:51;;;;;;;;;62.75;46.75;;;;;11.86;61.26;100903.03;5000710;28;45568;-50
2022/04/20 04:39:20;;;;;;;;;56.50;44.25;;;;;11.83;61.41;100898.75;5000686;28;45974;-51
2022/04/20 04:41:46;;;;;;;;;63.50;47.25;;;;;11.83;61.16;100901.41;4998622;28;45435;-51
2022/04/20 04:44:12;;;;;;;;;60.00;46.25;;;;;11.83;61.18;100903.19;5000468;28;45412;-49
2022/04/20 04:49:21;;;;;;;;;64.25;48.25;;;;;11.81;61.24;100905.94;4998048;28;45701;-53
2022/04/20 04:51:47;;;;;;;;;60.75;48.00;;;;;11.82;61.57;100915.56;5000408;28;46397;-51
2022/04/20 04:54:12;;;;;;;;;59.75;46.00;;;;;11.82;61.62;100917.34;5000311;28;45398;-53
2022/04/20 04:56:38;;;;;;;;;66.25;51.00;;;;;11.82;61.15;100930.53;5000454;28;45551;-53
2022/04/20 04:59:04;;;;;;;;;62.75;50.50;;;;;11.80;61.17;100924.47;5000464;28;45406;-53
2022/04/20 05:01:29;;;;;;;;;59.25;47.00;;;;;11.82;61.26;100925.25;5000152;28;45639;-52
2022/04/20 05:03:54;;;;;;;;;65.25;52.75;;;;;11.83;61.45;100919.03;5000072;28;45531;-52
2022/04/20 05:06:20;;;;;;;;;60.50;45.50;;;;;11.86;61.29;100919.72;5000089;28;45285;-53
2022/04/20 05:08:46;;;;;;;;;66.00;51.25;;;;;11.88;61.10;100917.81;4999865;28;45615;-53
2022/04/20 05:11:11;;;;;;;;;69.75;52.00;;;;;11.90;61.44;100915.06;4999588;28;45787;-52
2022/04/20 05:13:37;;;;;;;;;64.75;50.00;;;;;11.91;61.08;100912.34;4999789;28;45295;-52
2022/04/20 05:16:02;;;;;;;;;69.25;50.25;;;;;11.93;61.17;100921.03;5000149;28;46093;-54
2022/04/20 05:18:28;;;;;;;;;68.25;49.25;;;;;11.93;60.97;100921.03;4999903;28;45590;-53
2022/04/20 05:20:53;;;;;;;;;68.25;51.25;;;;;11.92;60.63;100915.81;4999666;28;45406;-52
2022/04/20 05:23:18;;;;;;;;;70.75;52.25;;;;;11.97;61.22;100919.03;4999685;28;45574;-52
2022/04/20 05:25:44;;;;;;;;;68.00;53.00;;;;;12.00;60.88;100916.19;4999832;28;45438;-50
2022/04/20 05:28:09;;;;;;;;;67.25;52.50;;;;;12.01;61.15;100917.91;4999571;28;45447;-50
2022/04/20 05:30:36;;;;;;;;;65.75;50.50;;;;;12.04;60.76;100911.59;4999180;28;45472;-52
2022/04/20 05:33:02;;;;;;;;;62.00;47.00;;;;;12.02;61.00;100917.81;4999006;28;45441;-50
2022/04/20 05:35:28;;;;;;;;;66.75;48.25;;;;;12.04;60.73;100916.88;4999411;28;45377;-54
2022/04/20 05:43:21;;;;;;;;;76.00;51.33;;;;;12.11;60.88;100934.88;4997644;28;45430;-53
2022/04/20 05:45:47;;;;;;;;;64.75;51.50;;;;;12.16;60.58;100939.84;5001118;28;45599;-51
2022/04/20 05:48:14;;;;;;;;;55.50;47.50;;;;;12.21;60.34;100930.69;5002000;28;45860;-53
2022/04/20 05:50:40;;;;;;;;;63.75;51.50;;;;;12.25;60.51;100934.00;5000531;28;45487;-50
2022/04/20 05:53:05;;;;;;;;;66.00;50.25;;;;;12.30;60.43;100937.19;5001090;28;45387;-52
2022/04/20 05:55:31;;;;;;;;;64.75;50.00;;;;;12.33;60.34;100944.94;4993696;28;45575;-53
2022/04/20 05:57:56;;;;;;;;;67.67;52.67;;;;;12.38;60.34;100939.34;4997472;28;45219;-51
2022/04/20 06:00:22;;;;;;;;;64.00;52.00;;;;;12.42;60.31;100935.59;5001102;28;45477;-52
2022/04/20 06:02:47;;;;;;;;;67.33;50.00;;;;;12.46;59.94;100930.00;5001062;28;45513;-53
2022/04/20 06:05:13;;;;;;;;;65.00;52.00;;;;;12.50;59.38;100925.38;4995986;28;45320;-52
2022/04/20 06:08:28;;;;;;;;;67.75;53.00;;;;;12.57;59.51;100921.38;5001377;28;45308;-52
2022/04/20 06:10:55;;;;;;;;;66.25;50.25;;;;;12.58;58.87;100921.28;4992292;28;46061;-52
2022/04/20 06:13:21;;;;;;;;;59.25;46.25;;;;;12.59;58.77;100914.19;4992136;28;45381;-53
2022/04/20 06:15:46;;;;;;;;;68.25;52.25;;;;;12.66;58.73;100907.56;5001691;28;45293;-52
2022/04/20 06:18:12;;;;;;;;;61.33;48.67;;;;;12.76;58.72;100913.94;5001149;28;45444;-53
2022/04/20 06:20:38;;;;;;;;;64.00;49.75;;;;;12.85;58.05;100915.97;5000915;28;45705;-50
2022/04/20 06:23:03;;;;;;;;;67.00;49.50;;;;;12.83;58.06;100917.88;5001251;28;45418;-50
2022/04/20 06:25:29;;;;;;;;;52.00;44.00;;;;;12.83;57.58;100925.81;5000976;28;45480;-52
2022/04/20 06:27:54;;;;;;;;;61.25;48.50;;;;;12.77;57.77;100922.72;5001400;28;45191;-52
2022/04/20 06:30:20;;;;;;;;;59.25;45.50;;;;;12.75;57.80;100920.19;4999014;28;45578;-53
2022/04/20 06:32:45;;;;;;;;;60.50;47.50;;;;;12.73;57.56;100930.03;5000990;28;45310;-52
2022/04/20 06:35:11;;;;;;;;;55.75;44.00;;;;;12.74;57.78;100931.72;5001169;28;45238;-49
2022/04/20 06:37:36;;;;;;;;;62.75;47.25;;;;;12.71;57.63;100926.59;5000070;28;45680;-51
2022/04/20 06:40:02;;;;;;;;;57.75;45.75;;;;;12.70;57.51;100924.91;4999888;28;45751;-52
2022/04/20 06:42:28;;;;;;;;;59.25;48.25;;;;;12.66;57.46;100920.78;4999671;28;46384;-50
2022/04/20 06:44:53;;;;;;;;;58.50;47.50;;;;;12.70;57.74;100921.41;4993841;28;45467;-51
2022/04/20 06:47:18;;;;;;;;;62.50;47.00;;;;;12.79;57.78;100921.66;5001102;28;45269;-53
2022/04/20 06:49:44;;;;;;;;;60.75;48.50;;;;;12.92;57.64;100924.38;5000434;28;45385;-50
2022/04/20 07:00:22;;;;;;;;;58.25;46.00;;;;;13.58;56.87;100917.28;5000056;28;45413;-50
2022/04/20 07:02:47;;;;;;;;;57.25;44.25;;;;;13.80;56.60;100919.31;4995169;28;45536;-52
2022/04/20 07:05:13;;;;;;;;;54.00;44.00;;;;;14.01;55.50;100916.97;4999490;28;45437;-50
2022/04/20 07:07:38;;;;;;;;;59.25;44.75;;;;;14.19;55.24;100921.78;5000824;28;45496;-54
2022/04/20 07:10:05;;;;;;;;;54.75;44.75;;;;;14.30;54.45;100921.03;4997246;28;45315;-54
2022/04/20 07:12:30;;;;;;;;;51.50;40.75;;;;;14.35;54.18;100923.34;5000776;28;45373;-52
2022/04/20 07:14:56;;;;;;;;;55.75;39.50;;;;;14.35;53.91;100916.22;5000506;28;45258;-53
2022/04/20 07:17:21;;;;;;;;;59.25;43.75;;;;;14.38;54.08;100917.84;5000757;28;45322;-52
2022/04/20 07:19:47;;;;;;;;;55.75;43.25;;;;;14.46;53.71;100912.84;4994830;28;46643;-54
2022/04/20 07:22:13;;;;;;;;;54.25;39.75;;;;;14.55;53.68;100922.78;5000054;28;45488;-55
2022/04/20 07:24:38;;;;;;;;;60.50;44.00;;;;;14.61;53.59;100924.97;5000565;28;45364;-58
2022/04/20 07:27:04;;;;;;;;;54.75;42.25;;;;;14.62;53.40;100923.19;5000712;28;45650;-53
2022/04/20 07:29:30;;;;;;;;;53.00;42.00;;;;;14.61;52.77;100926.78;4999142;28;45521;-57
2022/04/20 07:31:55;;;;;;;;;54.50;41.50;;;;;14.62;52.89;100932.00;4999865;28;45317;-54
2022/04/20 07:34:21;;;;;;;;;45.25;38.50;;;;;14.68;52.93;100934.16;5000061;28;45297;-54
2022/04/20 07:36:47;;;;;;;;;55.25;42.75;;;;;14.72;52.57;100942.75;4995291;28;45491;-54
2022/04/20 07:39:12;;;;;;;;;54.00;42.00;;;;;14.76;52.46;100938.91;5000061;28;45580;-51
2022/04/20 07:41:39;;;;;;;;;49.75;40.75;;;;;14.79;52.36;100941.34;5000073;28;45448;-51
2022/04/20 07:44:05;;;;;;;;;49.75;36.75;;;;;14.85;52.52;100932.94;4988501;28;45370;-51
2022/04/20 07:46:31;;;;;;;;;51.50;40.25;;;;;14.93;52.47;100935.00;4995424;28;45464;-51
2022/04/20 07:48:56;;;;;;;;;41.50;32.50;;;;;14.95;51.63;100928.66;4999385;28;47112;-54
2022/04/20 07:51:22;;;;;;;;;43.25;36.00;;;;;14.95;51.05;100935.75;4999978;28;45359;-49
2022/04/20 07:53:47;;;;;;;;;38.50;35.00;;;;;15.00;51.43;100928.28;5000231;28;45328;-53
2022/04/20 07:56:13;;;;;;;;;44.50;35.75;;;;;15.09;51.41;100932.94;4999874;28;45266;-52
2022/04/20 07:58:38;;;;;;;;;45.00;36.25;;;;;15.19;51.42;100941.88;4999992;28;46119;-52
2022/04/20 08:01:04;;;;;;;;;40.25;32.75;;;;;15.27;51.06;100941.31;4999377;28;45372;-51
2022/04/20 08:03:29;;;;;;;;;38.50;35.25;;;;;15.33;50.42;100943.50;4998860;28;45244;-55
2022/04/20 08:05:56;;;;;;;;;41.00;32.75;;;;;15.41;50.68;100945.56;5000024;28;45632;-54
2022/04/20 08:08:24;;;;;;;;;43.00;32.75;;;;;15.51;50.46;100943.91;4993837;28;45584;-54
2022/04/20 08:10:50;;;;;;;;;39.00;33.50;;;;;15.60;50.09;100935.22;5002251;28;45539;-55
2022/04/20 08:16:00;;;;;;;;;38.00;32.75;;;;;15.68;49.75;100935.50;5003386;28;45301;-56
2022/04/20 08:18:27;;;;;;;;;33.25;30.25;;;;;15.70;49.32;100933.56;4999597;28;45487;-53
2022/04/20 08:20:53;;;;;;;;;31.75;28.00;;;;;15.75;48.76;100930.56;4997606;28;45395;-55
2022/04/20 08:23:19;;;;;;;;;33.75;29.25;;;;;15.78;49.06;100936.47;5003225;28;45490;-53
2022/04/20 08:25:45;;;;;;;;;35.50;30.75;;;;;15.84;49.20;100937.81;4998010;28;45535;-55
2022/04/20 08:28:12;;;;;;;;;33.25;29.50;;;;;15.91;49.10;100934.56;4997357;28;45355;-53
2022/04/20 08:30:38;;;;;;;;;32.50;29.25;;;;;16.00;49.11;100932.16;5002611;28;45809;-49
2022/04/20 08:33:08;;;;;;;;;35.00;28.75;;;;;16.01;48.56;100931.19;5011917;28;45325;-58
2022/04/20 08:35:38;;;;;;;;;28.00;27.00;;;;;16.06;48.27;100931.66;4983642;28;45581;-62
2022/04/20 08:38:04;;;;;;;;;33.75;30.00;;;;;16.11;48.44;100932.97;5002741;28;45494;-51
2022/04/20 08:40:32;;;;;;;;;30.50;27.50;;;;;16.16;48.06;100936.13;5002852;28;45306;-58
2022/04/20 08:43:02;;;;;;;;;30.25;27.25;;;;;16.18;48.01;100934.19;5002583;28;45349;-50
2022/04/20 08:45:28;;;;;;;;;30.00;23.75;;;;;16.19;47.55;100925.25;5002744;28;45587;-49
2022/04/20 08:47:56;;;;;;;;;25.00;23.50;;;;;16.19;47.63;100933.25;5002218;28;45312;-60
2022/04/20 08:50:23;;;;;;;;;29.50;26.75;;;;;16.20;47.29;100934.09;5002483;28;45337;-52
2022/04/20 08:52:50;;;;;;;;;24.75;22.50;;;;;16.26;47.44;100935.38;5001960;28;45271;-49
2022/04/20 08:55:18;;;;;;;;;26.00;24.00;;;;;16.35;46.98;100929.31;5002655;28;45297;-52
2022/04/20 08:57:47;;;;;;;;;23.00;20.75;;;;;16.45;46.75;100927.63;5002680;28;46135;-52
2022/04/20 09:00:17;;;;;;;;;21.50;17.00;;;;;16.57;46.70;100931.94;5002135;28;45416;-52
2022/04/20 09:02:44;;;;;;;;;26.50;23.00;;;;;16.66;46.35;100936.50;5002884;28;45481;-50
2022/04/20 09:05:10;;;;;;;;;21.25;20.00;;;;;16.77;46.38;100930.38;5002516;28;45421;-54
2022/04/20 09:07:35;;;;;;;;;22.25;20.50;;;;;16.88;45.69;100934.78;5002446;28;46001;-53
2022/04/20 09:10:01;;;;;;;;;21.25;18.75;;;;;16.96;45.59;100929.69;4991893;28;47561;-54
2022/04/20 09:12:28;;;;;;;;;19.75;17.50;;;;;17.01;45.25;100931.00;4997540;28;45294;-51
2022/04/20 09:14:56;;;;;;;;;25.25;17.00;;;;;17.09;44.62;100929.50;5001654;28;45247;-53
2022/04/20 09:17:23;;;;;;;;;20.50;17.00;;;;;17.20;44.71;100938.28;5001987;28;46335;-53
2022/04/20 09:19:53;;;;;;;;;18.75;16.50;;;;;17.28;44.63;100938.47;4995896;28;45444;-52
2022/04/20 09:22:24;;;;;;;;;21.00;19.50;;;;;17.42;44.31;100941.78;5002525;28;45218;-51
2022/04/20 09:25:15;;;;;;;;;24.00;17.50;;;;;17.55;44.41;100942.44;5002343;28;45524;-53
2022/04/20 09:27:42;;;;;;;;;19.00;17.25;;;;;17.62;43.94;100932.97;5002039;28;46051;-52
2022/04/20 09:30:13;;;;;;;;;20.25;18.25;;;;;17.67;44.25;100929.88;4992620;28;45697;-54
2022/04/20 09:32:47;;;;;;;;;19.75;18.50;;;;;17.79;44.11;100934.22;4996860;28;45357;-50
2022/04/20 09:35:21;;;;;;;;;23.25;19.25;;;;;17.91;44.29;100927.78;5000873;28;46308;-49
2022/04/20 09:38:03;;;;;;;;;19.50;17.75;;;;;18.00;44.28;100934.97;4992011;28;45503;-52
2022/04/20 09:40:36;;;;;;;;;21.25;19.00;;;;;18.09;43.98;100925.38;5001440;28;45492;-52
2022/04/20 09:43:09;;;;;;;;;22.00;21.50;;;;;18.13;43.63;100926.78;5001948;28;45253;-52
2022/04/20 09:45:36;;;;;;;;;17.00;17.00;;;;;18.15;43.93;100916.81;4999588;28;45464;-50
2022/04/20 09:51:10;;;;;;;;;18.00;16.25;;;;;18.30;43.71;100912.78;5000090;28;45334;-53
2022/04/20 09:53:36;;;;;;;;;22.50;20.75;;;;;18.35;43.38;100905.22;5002009;28;45425;-52
2022/04/20 09:56:23;;;;;;;;;22.00;17.25;;;;;18.33;43.54;100903.69;5001844;28;45465;-50
2022/04/20 09:59:02;;;;;;;;;19.75;19.00;;;;;18.30;43.23;100903.94;5001083;28;45222;-50
2022/04/20 10:01:36;;;;;;;;;26.75;19.50;;;;;18.25;43.55;100907.03;5001335;28;45253;-51
2022/04/20 10:04:06;;;;;;;;;19.00;18.25;;;;;18.29;43.26;100903.09;4994020;28;45372;-49
2022/04/20 10:06:32;;;;;;;;;20.00;16.25;;;;;18.40;43.37;100894.97;5001866;28;45274;-53
2022/04/20 10:08:58;;;;;;;;;16.75;14.50;;;;;18.50;43.59;100902.16;5001623;28;45561;-50
2022/04/20 10:11:25;;;;;;;;;16.25;14.25;;;;;18.55;42.88;100897.25;5001616;28;45261;-50
2022/04/20 10:16:46;;;;;;;;;10.50;9.00;;;;;18.62;42.77;100901.88;4999611;28;45561;-55
2022/04/20 10:19:13;;;;;;;;;16.00;13.25;;;;;18.63;41.81;100900.06;4994762;28;45929;-53
2022/04/20 10:21:47;;;;;;;;;13.75;12.50;;;;;18.65;42.14;100903.47;5001303;28;45524;-54
2022/04/20 10:24:18;;;;;;;;;16.25;13.75;;;;;18.73;42.24;100894.78;5001345;28;45582;-56
2022/04/20 10:26:46;;;;;;;;;15.00;13.00;;;;;18.83;42.35;100900.97;5001331;28;45567;-57
2022/04/20 10:29:22;;;;;;;;;11.00;10.50;;;;;18.94;41.92;100888.31;4999439;28;46137;-57
2022/04/20 10:31:58;;;;;;;;;13.50;12.25;;;;;19.02;41.45;100892.94;4999997;28;45527;-57
2022/04/20 10:34:25;;;;;;;;;12.00;11.50;;;;;19.08;41.94;100889.72;4990168;28;45345;-56
2022/04/20 10:37:02;;;;;;;;;12.50;11.25;;;;;19.16;41.25;100891.66;4983205;28;45664;-53
2022/04/20 10:39:34;;;;;;;;;13.25;12.00;;;;;19.17;41.35;100888.84;5000687;28;47217;-54
2022/04/20 10:42:11;;;;;;;;;10.25;9.50;;;;;19.23;41.84;100885.63;5000893;28;45398;-54
2022/04/20 10:45:00;;;;;;;;;13.00;10.00;;;;;19.28;41.16;100889.69;4983206;28;45461;-53
2022/04/20 10:47:30;;;;;;;;;10.25;10.25;;;;;19.28;40.83;100882.53;5000874;28;45502;-51
2022/04/20 10:50:21;;;;;;;;;10.50;9.00;;;;;19.33;41.33;100879.41;5000469;28;45394;-50
2022/04/20 10:52:48;;;;;;;;;10.00;9.00;;;;;19.40;40.48;100878.69;4990902;28;45271;-51
2022/04/20 10:55:15;;;;;;;;;11.25;8.50;;;;;19.43;41.11;100874.88;5000971;28;45265;-50
2022/04/20 10:57:42;;;;;;;;;9.75;7.50;;;;;19.45;41.21;100868.41;5001020;28;45491;-51
2022/04/20 11:00:20;;;;;;;;;10.25;9.00;;;;;19.45;40.88;100868.41;5000323;28;46427;-50
2022/04/20 11:02:48;;;;;;;;;8.50;7.50;;;;;19.47;40.83;100855.75;4999607;28;45297;-49
2022/04/20 11:05:20;;;;;;;;;7.50;7.25;;;;;19.51;41.00;100854.47;5000082;28;45530;-52
2022/04/20 11:08:05;;;;;;;;;8.50;7.75;;;;;19.52;40.64;100860.66;4983225;28;45517;-49
2022/04/20 11:10:32;;;;;;;;;9.25;8.00;;;;;19.51;40.37;100848.28;4989882;28;45368;-51
2022/04/20 11:19:06;;;;;;;;;8.50;6.75;;;;;19.66;40.20;100843.31;4976152;28;45578;-53
2022/04/20 11:21:32;;;;;;;;;7.25;6.75;;;;;19.76;40.23;100830.78;4996520;28;45318;-51
2022/04/20 11:24:05;;;;;;;;;6.75;6.75;;;;;19.82;39.44;100821.31;4995518;28;45373;-56
2022/04/20 11:26:34;;;;;;;;;6.00;5.50;;;;;19.90;39.90;100826.75;5000593;28;45413;-55
2022/04/20 11:29:10;;;;;;;;;6.75;6.00;;;;;20.00;39.55;100824.88;4999939;28;45417;-52
2022/04/20 11:31:45;;;;;;;;;6.00;4.00;;;;;20.13;38.85;100832.53;4998332;28;45509;-55
2022/04/20 11:34:14;;;;;;;;;6.25;5.00;;;;;20.26;38.41;100833.84;5000173;28;45512;-53
2022/04/20 11:36:43;;;;;;;;;8.00;6.00;;;;;20.35;37.69;100829.44;5000475;28;45342;-53
2022/04/20 11:39:12;;;;;;;;;7.00;5.00;;;;;20.38;37.83;100821.13;5000024;28;45346;-51
2022/04/20 11:41:44;;;;;;;;;7.50;6.75;;;;;20.41;37.52;100817.28;5000389;28;45256;-49
2022/04/20 11:44:34;;;;;;;;;4.25;3.00;;;;;20.48;37.20;100824.59;4994907;28;45371;-51